Moosonee Airport
CYMO : now visible

Airfield :











YOU CAN JOIN US ON...

 
LOGIN :

Register | Disclaimer

   EN    FR    IT 

 









Legend :    VFR   Marginal VFR   IFR   Intensive IFR   Very Intensive IFR
Visi :
Ceiling :
>= 8 km
>= 3000ft
5 to 8 km
1000 to 3000 ft
1500m to 5 km
500 to 1000 ft
800 to 1500m
200 to 500 ft
< 800m
< 200 ft
Symbols :   Thunderstorms  Fog  Heavy snow  Heavy precipitations  Wind > 20 kt






- Airport Elevation : 30 ft
- IATA code : YMO


CYMO - Moosonee

CURRENT METAR :
  • 260406Z AUTO 32004KT 3SM BR SCT006 BKN010 BKN019 OVC035 02/02 A3028 RMK SLP257

EXPIRED METARs :
  • 260359Z AUTO 33003KT 2 1/2SM BR BKN008 BKN017 BKN022 OVC033 02/02 A3029 RMK SLP258
  • 260347Z AUTO 35002KT 5SM BR FEW013 BKN022 OVC033 02/02 A3029 RMK SLP258
  • 260338Z AUTO 32004KT 310V020 3SM BR BKN022 BKN035 03/02 A3029 RMK SLP258
  • 260328Z AUTO 36003KT 320V030 4SM BR BKN024 BKN035 03/02 A3029 RMK SLP258
  • 260304Z AUTO 35003KT 310V010 6SM BR FEW012 OVC024 03/03 A3029 RMK SLP260
  • 260259Z AUTO 34003KT 3SM BR SCT008 OVC024 03/02 A3030 RMK SLP261
  • 260250Z AUTO 32002KT 1SM BR SCT003 OVC024 03/02 A3029 RMK SLP260
  • 260240Z AUTO 34003KT 3/4SM BR BKN003 OVC026 03/03 A3029 RMK SLP259
  • 260233Z AUTO 34004KT 1 3/4SM BR BKN003 BKN013 03/03 A3029 RMK SLP258
  • 260221Z AUTO 35004KT 9SM SCT003 SCT013 BKN021 BKN027 03/03 A3029 RMK SLP258
  • 260213Z AUTO 35004KT 9SM SCT013 SCT019 BKN025 04/03 A3029 RMK SLP260
  • 260204Z AUTO 35004KT 8SM FEW011 SCT016 BKN021 OVC025 04/03 A3030 RMK SLP261
  • 260156Z AUTO 36004KT 3SM BR FEW009 SCT013 SCT020 OVC025 04/04 A3030 RMK SLP261
  • 260135Z AUTO 34006KT 1 3/4SM -RA BR FEW007 BKN012 BKN018 OVC023 04/03 A3029 RMK SLP260
  • 260122Z AUTO 34005KT 9SM BKN013 BKN018 OVC023 04/03 A3029 RMK SLP260
  • 260116Z AUTO 34005KT 3SM -RA BR FEW007 BKN013 BKN021 OVC039 04/03 A3030 RMK SLP261

TAF AMD TAF CYMO
Valid from the 26 at 01:00 until the 26 at 12:00 UTC


260114Z 2601/2612 36005KT P6SM SCT015 BKN025
TEMPO 2601/2603 11/2SM -RA -DZ BR BKN015 OVC030
FM260300 03005KT P6SM SCT008 BKN025
TEMPO 2603/2610 21/2SM -RA -DZ BR BKN008 OVC015
PROB30 2603/2610 11/2SM -RA -DZ BR OVC006
FM261000 06008KT P6SM SCT008 OVC015 RMK FCST BASED ON AUTO OBS. NXT FCST BY 260600Z
CZYZ FIR / North America



MET'MAP, your aeronautical weather chart ! - Copyright ORBIFLY December 2007 - Disclaimer

ORBIFLY MET'MAP TEAM :

Programming & Development : Alexandra Zaïnal
Concept & original design : Baudouin d'Aumeries
Assistance for programming : Marc-Olivier Méhu
Technical & hardware support : Manuel Goepfert

Contact : metmap@orbifly.com




SOURCES & CREDITS :

   NOAA       Earth
Advisory